sensor_id;sensor_type;location;lat;lon;timestamp;temperature;humidity
58309;DHT22;44117;57.142;24.826;2023-02-28T00:01:27;-1.70;99.90
58309;DHT22;44117;57.142;24.826;2023-02-28T00:03:55;-1.70;99.90
58309;DHT22;44117;57.142;24.826;2023-02-28T00:06:22;-1.70;99.90
58309;DHT22;44117;57.142;24.826;2023-02-28T00:08:50;-1.70;99.90
58309;DHT22;44117;57.142;24.826;2023-02-28T00:11:17;-1.70;99.90
58309;DHT22;44117;57.142;24.826;2023-02-28T00:13:45;-1.60;99.90
58309;DHT22;44117;57.142;24.826;2023-02-28T00:16:14;-1.60;99.90
58309;DHT22;44117;57.142;24.826;2023-02-28T00:18:41;-1.50;99.90
58309;DHT22;44117;57.142;24.826;2023-02-28T00:21:08;-1.50;99.90
58309;DHT22;44117;57.142;24.826;2023-02-28T00:23:35;-1.50;99.90
58309;DHT22;44117;57.142;24.826;2023-02-28T00:26:03;-1.50;99.90
58309;DHT22;44117;57.142;24.826;2023-02-28T00:28:30;-1.40;99.90
58309;DHT22;44117;57.142;24.826;2023-02-28T00:30:57;-1.40;99.90
58309;DHT22;44117;57.142;24.826;2023-02-28T00:33:24;-1.30;99.90
58309;DHT22;44117;57.142;24.826;2023-02-28T00:35:51;-1.30;99.90
58309;DHT22;44117;57.142;24.826;2023-02-28T00:38:18;-1.30;99.90
58309;DHT22;44117;57.142;24.826;2023-02-28T00:40:45;-1.20;99.90
58309;DHT22;44117;57.142;24.826;2023-02-28T00:43:13;-1.20;99.90
58309;DHT22;44117;57.142;24.826;2023-02-28T00:45:40;-1.20;99.90
58309;DHT22;44117;57.142;24.826;2023-02-28T00:48:07;-1.20;99.90
58309;DHT22;44117;57.142;24.826;2023-02-28T00:50:34;-1.20;99.90
58309;DHT22;44117;57.142;24.826;2023-02-28T00:53:01;-1.20;99.90
58309;DHT22;44117;57.142;24.826;2023-02-28T00:55:28;-1.20;99.90
58309;DHT22;44117;57.142;24.826;2023-02-28T00:57:55;-1.20;99.90
58309;DHT22;44117;57.142;24.826;2023-02-28T01:00:22;-1.20;99.90
58309;DHT22;44117;57.142;24.826;2023-02-28T01:02:49;-1.20;99.90
58309;DHT22;44117;57.142;24.826;2023-02-28T01:05:16;-1.20;99.90
58309;DHT22;44117;57.142;24.826;2023-02-28T01:07:43;-1.20;99.90
58309;DHT22;44117;57.142;24.826;2023-02-28T01:10:10;-1.20;99.90
58309;DHT22;44117;57.142;24.826;2023-02-28T01:12:37;-1.20;99.90
58309;DHT22;44117;57.142;24.826;2023-02-28T01:15:04;-1.10;99.90
58309;DHT22;44117;57.142;24.826;2023-02-28T01:17:32;-1.10;99.90
58309;DHT22;44117;57.142;24.826;2023-02-28T01:19:59;-1.10;99.90
58309;DHT22;44117;57.142;24.826;2023-02-28T01:22:26;-1.20;99.90
58309;DHT22;44117;57.142;24.826;2023-02-28T01:24:53;-1.20;99.90
58309;DHT22;44117;57.142;24.826;2023-02-28T01:27:20;-1.10;99.90
58309;DHT22;44117;57.142;24.826;2023-02-28T01:29:47;-1.10;99.90
58309;DHT22;44117;57.142;24.826;2023-02-28T01:32:14;-1.10;99.90
58309;DHT22;44117;57.142;24.826;2023-02-28T01:34:41;-1.10;99.90
58309;DHT22;44117;57.142;24.826;2023-02-28T01:37:08;-1.10;99.90
58309;DHT22;44117;57.142;24.826;2023-02-28T01:39:35;-1.10;99.90
58309;DHT22;44117;57.142;24.826;2023-02-28T01:42:02;-1.10;99.90
58309;DHT22;44117;57.142;24.826;2023-02-28T01:47:15;-1.00;99.90
58309;DHT22;44117;57.142;24.826;2023-02-28T01:49:42;-1.00;99.90
58309;DHT22;44117;57.142;24.826;2023-02-28T01:52:09;-1.00;99.90
58309;DHT22;44117;57.142;24.826;2023-02-28T01:54:45;-1.00;99.90
58309;DHT22;44117;57.142;24.826;2023-02-28T01:57:14;-1.00;99.90
58309;DHT22;44117;57.142;24.826;2023-02-28T01:59:43;-1.00;99.90
58309;DHT22;44117;57.142;24.826;2023-02-28T02:02:13;-0.90;99.90
58309;DHT22;44117;57.142;24.826;2023-02-28T02:04:41;-0.90;99.90
58309;DHT22;44117;57.142;24.826;2023-02-28T02:07:11;-0.90;99.90
58309;DHT22;44117;57.142;24.826;2023-02-28T02:09:39;-0.90;99.90
58309;DHT22;44117;57.142;24.826;2023-02-28T02:12:32;-0.90;99.90
58309;DHT22;44117;57.142;24.826;2023-02-28T02:14:57;-1.00;99.90
58309;DHT22;44117;57.142;24.826;2023-02-28T02:17:38;-1.00;99.90
58309;DHT22;44117;57.142;24.826;2023-02-28T02:25:33;-1.00;99.90
58309;DHT22;44117;57.142;24.826;2023-02-28T02:28:21;-1.00;99.90
58309;DHT22;44117;57.142;24.826;2023-02-28T02:30:57;-1.00;99.90
58309;DHT22;44117;57.142;24.826;2023-02-28T02:38:43;-1.00;99.90
58309;DHT22;44117;57.142;24.826;2023-02-28T02:41:24;-1.10;99.90
58309;DHT22;44117;57.142;24.826;2023-02-28T02:43:57;-1.10;99.90
58309;DHT22;44117;57.142;24.826;2023-02-28T02:46:43;-1.10;99.90
58309;DHT22;44117;57.142;24.826;2023-02-28T02:52:09;-1.20;99.90
58309;DHT22;44117;57.142;24.826;2023-02-28T02:54:38;-1.20;99.90
58309;DHT22;44117;57.142;24.826;2023-02-28T02:57:08;-1.10;99.90
58309;DHT22;44117;57.142;24.826;2023-02-28T02:59:37;-1.10;99.90
58309;DHT22;44117;57.142;24.826;2023-02-28T03:02:06;-1.10;99.90
58309;DHT22;44117;57.142;24.826;2023-02-28T03:04:36;-1.00;99.90
58309;DHT22;44117;57.142;24.826;2023-02-28T03:07:05;-1.00;99.90
58309;DHT22;44117;57.142;24.826;2023-02-28T03:09:32;-1.00;99.90
58309;DHT22;44117;57.142;24.826;2023-02-28T03:12:00;-1.00;99.90
58309;DHT22;44117;57.142;24.826;2023-02-28T03:19:34;-1.00;99.90
58309;DHT22;44117;57.142;24.826;2023-02-28T03:22:12;-0.90;99.90
58309;DHT22;44117;57.142;24.826;2023-02-28T03:24:46;-0.90;99.90
58309;DHT22;44117;57.142;24.826;2023-02-28T03:29:46;-0.90;99.90
58309;DHT22;44117;57.142;24.826;2023-02-28T03:32:27;-0.80;99.90
58309;DHT22;44117;57.142;24.826;2023-02-28T03:34:58;-0.80;99.90
58309;DHT22;44117;57.142;24.826;2023-02-28T03:37:27;-0.70;99.90
58309;DHT22;44117;57.142;24.826;2023-02-28T03:39:57;-0.70;99.90
58309;DHT22;44117;57.142;24.826;2023-02-28T03:42:29;-0.70;99.90
58309;DHT22;44117;57.142;24.826;2023-02-28T03:45:01;-0.70;99.90
58309;DHT22;44117;57.142;24.826;2023-02-28T03:47:39;-0.70;99.90
58309;DHT22;44117;57.142;24.826;2023-02-28T03:52:40;-0.60;99.90
58309;DHT22;44117;57.142;24.826;2023-02-28T03:55:10;-0.60;99.90
58309;DHT22;44117;57.142;24.826;2023-02-28T04:00:21;-0.60;99.90
58309;DHT22;44117;57.142;24.826;2023-02-28T04:02:53;-0.60;99.90
58309;DHT22;44117;57.142;24.826;2023-02-28T04:05:20;-0.60;99.90
58309;DHT22;44117;57.142;24.826;2023-02-28T04:07:47;-0.60;99.90
58309;DHT22;44117;57.142;24.826;2023-02-28T04:10:15;-0.50;99.90
58309;DHT22;44117;57.142;24.826;2023-02-28T04:12:42;-0.60;99.90
58309;DHT22;44117;57.142;24.826;2023-02-28T04:15:09;-0.60;99.90
58309;DHT22;44117;57.142;24.826;2023-02-28T04:17:38;-0.60;99.90
58309;DHT22;44117;57.142;24.826;2023-02-28T04:20:05;-0.50;99.90
58309;DHT22;44117;57.142;24.826;2023-02-28T04:22:36;-0.50;99.90
58309;DHT22;44117;57.142;24.826;2023-02-28T04:25:04;-0.50;99.90
58309;DHT22;44117;57.142;24.826;2023-02-28T04:27:32;-0.50;99.90
58309;DHT22;44117;57.142;24.826;2023-02-28T04:29:59;-0.40;99.90
58309;DHT22;44117;57.142;24.826;2023-02-28T04:32:26;-0.40;99.90
58309;DHT22;44117;57.142;24.826;2023-02-28T04:34:53;-0.40;99.90
58309;DHT22;44117;57.142;24.826;2023-02-28T04:37:20;-0.30;99.90
58309;DHT22;44117;57.142;24.826;2023-02-28T04:39:47;-0.30;99.90
58309;DHT22;44117;57.142;24.826;2023-02-28T04:42:14;-0.20;99.90
58309;DHT22;44117;57.142;24.826;2023-02-28T04:44:41;-0.30;99.90
58309;DHT22;44117;57.142;24.826;2023-02-28T04:47:09;-0.30;99.90
58309;DHT22;44117;57.142;24.826;2023-02-28T04:49:36;-0.20;99.90
58309;DHT22;44117;57.142;24.826;2023-02-28T04:52:03;-0.20;99.90
58309;DHT22;44117;57.142;24.826;2023-02-28T04:54:30;-0.20;99.90
58309;DHT22;44117;57.142;24.826;2023-02-28T04:56:57;-0.20;99.90
58309;DHT22;44117;57.142;24.826;2023-02-28T04:59:24;-0.20;99.90
58309;DHT22;44117;57.142;24.826;2023-02-28T05:01:51;-0.10;99.90
58309;DHT22;44117;57.142;24.826;2023-02-28T05:04:18;-0.10;99.90
58309;DHT22;44117;57.142;24.826;2023-02-28T05:06:45;0.00;99.90
58309;DHT22;44117;57.142;24.826;2023-02-28T05:09:12;0.00;99.90
58309;DHT22;44117;57.142;24.826;2023-02-28T05:11:40;0.00;99.90
58309;DHT22;44117;57.142;24.826;2023-02-28T05:14:10;0.00;99.90
58309;DHT22;44117;57.142;24.826;2023-02-28T05:16:38;0.00;99.90
58309;DHT22;44117;57.142;24.826;2023-02-28T05:19:05;0.10;99.90
58309;DHT22;44117;57.142;24.826;2023-02-28T05:21:36;0.20;99.90
58309;DHT22;44117;57.142;24.826;2023-02-28T05:24:04;0.10;99.90
58309;DHT22;44117;57.142;24.826;2023-02-28T05:26:34;0.20;99.90
58309;DHT22;44117;57.142;24.826;2023-02-28T05:29:01;0.30;99.90
58309;DHT22;44117;57.142;24.826;2023-02-28T05:31:28;0.30;99.90
58309;DHT22;44117;57.142;24.826;2023-02-28T05:33:56;0.30;99.90
58309;DHT22;44117;57.142;24.826;2023-02-28T05:36:23;0.40;99.90
58309;DHT22;44117;57.142;24.826;2023-02-28T05:38:50;0.30;99.90
58309;DHT22;44117;57.142;24.826;2023-02-28T05:41:18;0.50;99.90
58309;DHT22;44117;57.142;24.826;2023-02-28T05:43:48;0.50;99.90
58309;DHT22;44117;57.142;24.826;2023-02-28T05:46:15;0.50;99.90
58309;DHT22;44117;57.142;24.826;2023-02-28T05:48:45;0.60;99.90
58309;DHT22;44117;57.142;24.826;2023-02-28T05:51:12;0.70;99.90
58309;DHT22;44117;57.142;24.826;2023-02-28T05:53:39;0.70;99.90
58309;DHT22;44117;57.142;24.826;2023-02-28T05:56:06;0.80;99.90
58309;DHT22;44117;57.142;24.826;2023-02-28T05:58:33;0.80;99.90
58309;DHT22;44117;57.142;24.826;2023-02-28T06:01:18;0.90;99.90
58309;DHT22;44117;57.142;24.826;2023-02-28T06:03:46;1.00;99.90
58309;DHT22;44117;57.142;24.826;2023-02-28T06:06:13;1.10;99.90
58309;DHT22;44117;57.142;24.826;2023-02-28T06:08:40;1.10;99.90
58309;DHT22;44117;57.142;24.826;2023-02-28T06:11:07;1.20;99.90
58309;DHT22;44117;57.142;24.826;2023-02-28T06:13:34;1.20;99.90
58309;DHT22;44117;57.142;24.826;2023-02-28T06:16:01;1.30;99.90
58309;DHT22;44117;57.142;24.826;2023-02-28T06:18:28;1.40;99.90
58309;DHT22;44117;57.142;24.826;2023-02-28T06:20:55;1.50;99.90
58309;DHT22;44117;57.142;24.826;2023-02-28T06:23:23;1.50;99.90
58309;DHT22;44117;57.142;24.826;2023-02-28T06:25:50;1.60;99.90
58309;DHT22;44117;57.142;24.826;2023-02-28T06:28:19;1.70;99.90
58309;DHT22;44117;57.142;24.826;2023-02-28T06:30:46;1.70;99.90
58309;DHT22;44117;57.142;24.826;2023-02-28T06:33:13;1.70;99.90
58309;DHT22;44117;57.142;24.826;2023-02-28T06:35:43;1.80;99.90
58309;DHT22;44117;57.142;24.826;2023-02-28T06:38:10;1.80;99.90
58309;DHT22;44117;57.142;24.826;2023-02-28T06:40:37;1.90;99.90
58309;DHT22;44117;57.142;24.826;2023-02-28T06:43:04;1.80;99.90
58309;DHT22;44117;57.142;24.826;2023-02-28T06:45:31;1.90;99.90
58309;DHT22;44117;57.142;24.826;2023-02-28T06:47:58;2.00;99.90
58309;DHT22;44117;57.142;24.826;2023-02-28T06:50:26;1.90;99.90
58309;DHT22;44117;57.142;24.826;2023-02-28T06:52:56;2.00;99.90
58309;DHT22;44117;57.142;24.826;2023-02-28T06:55:23;2.00;99.90
58309;DHT22;44117;57.142;24.826;2023-02-28T06:57:50;2.10;99.90
58309;DHT22;44117;57.142;24.826;2023-02-28T07:00:17;2.20;99.90
58309;DHT22;44117;57.142;24.826;2023-02-28T07:02:44;2.30;99.90
58309;DHT22;44117;57.142;24.826;2023-02-28T07:05:11;2.30;99.90
58309;DHT22;44117;57.142;24.826;2023-02-28T07:07:38;2.40;99.90
58309;DHT22;44117;57.142;24.826;2023-02-28T07:10:10;2.40;99.90
58309;DHT22;44117;57.142;24.826;2023-02-28T07:12:38;2.50;99.90
58309;DHT22;44117;57.142;24.826;2023-02-28T07:15:05;2.60;99.90
58309;DHT22;44117;57.142;24.826;2023-02-28T07:17:32;2.60;99.90
58309;DHT22;44117;57.142;24.826;2023-02-28T07:19:59;2.60;99.90
58309;DHT22;44117;57.142;24.826;2023-02-28T07:22:26;2.70;99.90
58309;DHT22;44117;57.142;24.826;2023-02-28T07:24:55;2.80;99.90
58309;DHT22;44117;57.142;24.826;2023-02-28T07:27:22;2.90;99.90
58309;DHT22;44117;57.142;24.826;2023-02-28T07:29:52;2.90;99.90
58309;DHT22;44117;57.142;24.826;2023-02-28T07:32:19;2.90;99.90
58309;DHT22;44117;57.142;24.826;2023-02-28T07:34:47;2.90;99.90
58309;DHT22;44117;57.142;24.826;2023-02-28T07:37:15;2.90;99.90
58309;DHT22;44117;57.142;24.826;2023-02-28T07:39:42;3.00;99.90
58309;DHT22;44117;57.142;24.826;2023-02-28T07:42:09;3.10;99.90
58309;DHT22;44117;57.142;24.826;2023-02-28T07:44:38;3.10;99.90
58309;DHT22;44117;57.142;24.826;2023-02-28T07:47:10;3.10;99.90
58309;DHT22;44117;57.142;24.826;2023-02-28T07:49:37;3.10;99.90
58309;DHT22;44117;57.142;24.826;2023-02-28T07:52:04;3.20;99.90
58309;DHT22;44117;57.142;24.826;2023-02-28T07:54:32;3.30;99.90
58309;DHT22;44117;57.142;24.826;2023-02-28T07:56:59;3.20;99.90
58309;DHT22;44117;57.142;24.826;2023-02-28T07:59:26;3.20;99.90
58309;DHT22;44117;57.142;24.826;2023-02-28T08:01:57;3.40;99.90
58309;DHT22;44117;57.142;24.826;2023-02-28T08:04:24;3.40;99.90
58309;DHT22;44117;57.142;24.826;2023-02-28T08:06:51;3.40;99.90
58309;DHT22;44117;57.142;24.826;2023-02-28T08:09:23;3.40;99.90
58309;DHT22;44117;57.142;24.826;2023-02-28T08:11:50;3.50;99.90
58309;DHT22;44117;57.142;24.826;2023-02-28T08:14:17;3.50;99.90
58309;DHT22;44117;57.142;24.826;2023-02-28T08:16:44;3.50;99.90
58309;DHT22;44117;57.142;24.826;2023-02-28T08:19:11;3.60;99.90
58309;DHT22;44117;57.142;24.826;2023-02-28T08:21:38;3.60;99.90
58309;DHT22;44117;57.142;24.826;2023-02-28T08:24:06;3.70;99.90
58309;DHT22;44117;57.142;24.826;2023-02-28T08:26:33;3.70;99.90
58309;DHT22;44117;57.142;24.826;2023-02-28T08:29:00;3.60;99.90
58309;DHT22;44117;57.142;24.826;2023-02-28T08:31:28;3.70;99.90
58309;DHT22;44117;57.142;24.826;2023-02-28T08:33:55;3.80;99.90
58309;DHT22;44117;57.142;24.826;2023-02-28T08:36:25;3.80;99.90
58309;DHT22;44117;57.142;24.826;2023-02-28T08:38:56;3.90;99.90
58309;DHT22;44117;57.142;24.826;2023-02-28T08:41:23;3.90;99.90
58309;DHT22;44117;57.142;24.826;2023-02-28T08:43:50;3.90;99.90
58309;DHT22;44117;57.142;24.826;2023-02-28T08:46:17;4.00;99.90
58309;DHT22;44117;57.142;24.826;2023-02-28T08:48:44;4.10;99.90
58309;DHT22;44117;57.142;24.826;2023-02-28T08:51:15;4.30;99.90
58309;DHT22;44117;57.142;24.826;2023-02-28T08:53:48;4.20;99.90
58309;DHT22;44117;57.142;24.826;2023-02-28T08:56:16;4.30;99.90
58309;DHT22;44117;57.142;24.826;2023-02-28T08:58:46;4.60;99.90
58309;DHT22;44117;57.142;24.826;2023-02-28T09:03:41;4.70;99.90
58309;DHT22;44117;57.142;24.826;2023-02-28T09:06:09;4.80;99.90
58309;DHT22;44117;57.142;24.826;2023-02-28T09:08:36;4.90;99.90
58309;DHT22;44117;57.142;24.826;2023-02-28T09:11:04;4.90;99.90
58309;DHT22;44117;57.142;24.826;2023-02-28T09:13:31;5.00;99.90
58309;DHT22;44117;57.142;24.826;2023-02-28T09:15:59;5.10;99.90
58309;DHT22;44117;57.142;24.826;2023-02-28T09:18:27;4.70;99.90
58309;DHT22;44117;57.142;24.826;2023-02-28T09:20:54;4.80;99.90
58309;DHT22;44117;57.142;24.826;2023-02-28T09:23:21;5.00;99.90
58309;DHT22;44117;57.142;24.826;2023-02-28T09:25:52;5.00;99.90
58309;DHT22;44117;57.142;24.826;2023-02-28T09:28:20;5.00;99.90
58309;DHT22;44117;57.142;24.826;2023-02-28T09:30:49;5.20;99.90
58309;DHT22;44117;57.142;24.826;2023-02-28T09:33:16;5.30;99.90
58309;DHT22;44117;57.142;24.826;2023-02-28T09:35:44;5.30;99.90
58309;DHT22;44117;57.142;24.826;2023-02-28T09:38:11;5.20;99.90
58309;DHT22;44117;57.142;24.826;2023-02-28T09:40:51;5.30;99.90
58309;DHT22;44117;57.142;24.826;2023-02-28T09:43:20;5.40;99.90
58309;DHT22;44117;57.142;24.826;2023-02-28T09:45:48;5.40;99.90
58309;DHT22;44117;57.142;24.826;2023-02-28T09:48:19;5.60;99.90
58309;DHT22;44117;57.142;24.826;2023-02-28T09:50:48;5.80;99.90
58309;DHT22;44117;57.142;24.826;2023-02-28T09:53:20;5.60;99.90
58309;DHT22;44117;57.142;24.826;2023-02-28T09:55:51;5.60;99.90
58309;DHT22;44117;57.142;24.826;2023-02-28T10:01:09;5.80;99.90
58309;DHT22;44117;57.142;24.826;2023-02-28T10:03:43;5.80;99.90
58309;DHT22;44117;57.142;24.826;2023-02-28T10:06:20;6.40;99.90
58309;DHT22;44117;57.142;24.826;2023-02-28T10:11:24;7.20;99.90
58309;DHT22;44117;57.142;24.826;2023-02-28T10:19:03;8.40;99.90
58309;DHT22;44117;57.142;24.826;2023-02-28T10:21:35;8.30;99.90
58309;DHT22;44117;57.142;24.826;2023-02-28T10:26:40;8.50;99.90
58309;DHT22;44117;57.142;24.826;2023-02-28T10:29:20;8.10;99.90
58309;DHT22;44117;57.142;24.826;2023-02-28T10:31:48;8.00;99.90
58309;DHT22;44117;57.142;24.826;2023-02-28T10:34:16;7.70;99.90
58309;DHT22;44117;57.142;24.826;2023-02-28T10:36:47;7.50;99.90
58309;DHT22;44117;57.142;24.826;2023-02-28T10:42:21;7.20;99.90
58309;DHT22;44117;57.142;24.826;2023-02-28T10:45:27;8.00;99.90
58309;DHT22;44117;57.142;24.826;2023-02-28T10:47:53;8.10;99.90
58309;DHT22;44117;57.142;24.826;2023-02-28T10:50:33;7.60;99.90
58309;DHT22;44117;57.142;24.826;2023-02-28T10:55:42;7.30;99.90
58309;DHT22;44117;57.142;24.826;2023-02-28T10:58:22;7.20;99.90
58309;DHT22;44117;57.142;24.826;2023-02-28T11:00:50;7.70;99.90
58309;DHT22;44117;57.142;24.826;2023-02-28T11:03:25;8.30;99.90
58309;DHT22;44117;57.142;24.826;2023-02-28T11:05:52;8.90;99.90
58309;DHT22;44117;57.142;24.826;2023-02-28T11:08:19;9.20;99.90
58309;DHT22;44117;57.142;24.826;2023-02-28T11:10:48;9.70;99.90
58309;DHT22;44117;57.142;24.826;2023-02-28T11:13:16;9.30;99.90
58309;DHT22;44117;57.142;24.826;2023-02-28T11:15:49;9.40;99.90
58309;DHT22;44117;57.142;24.826;2023-02-28T11:21:03;8.10;99.90
58309;DHT22;44117;57.142;24.826;2023-02-28T11:23:30;7.40;99.90
58309;DHT22;44117;57.142;24.826;2023-02-28T11:26:00;7.20;99.90
58309;DHT22;44117;57.142;24.826;2023-02-28T11:28:30;7.40;99.90
58309;DHT22;44117;57.142;24.826;2023-02-28T11:31:02;7.60;99.90
58309;DHT22;44117;57.142;24.826;2023-02-28T11:36:27;7.00;99.90
58309;DHT22;44117;57.142;24.826;2023-02-28T11:38:55;7.00;99.90
58309;DHT22;44117;57.142;24.826;2023-02-28T11:49:13;6.30;99.90
58309;DHT22;44117;57.142;24.826;2023-02-28T11:52:05;6.30;99.90
58309;DHT22;44117;57.142;24.826;2023-02-28T11:54:44;6.50;99.90
58309;DHT22;44117;57.142;24.826;2023-02-28T11:59:59;6.60;99.90
58309;DHT22;44117;57.142;24.826;2023-02-28T12:02:41;6.50;99.90
58309;DHT22;44117;57.142;24.826;2023-02-28T12:05:25;6.40;99.90
58309;DHT22;44117;57.142;24.826;2023-02-28T12:07:59;6.40;99.90
58309;DHT22;44117;57.142;24.826;2023-02-28T12:10:29;6.40;99.90
58309;DHT22;44117;57.142;24.826;2023-02-28T12:18:10;6.40;99.90
58309;DHT22;44117;57.142;24.826;2023-02-28T12:28:17;5.90;99.90
58309;DHT22;44117;57.142;24.826;2023-02-28T12:30:49;5.80;99.90
58309;DHT22;44117;57.142;24.826;2023-02-28T12:33:18;5.80;99.90
58309;DHT22;44117;57.142;24.826;2023-02-28T12:35:52;5.80;99.90
58309;DHT22;44117;57.142;24.826;2023-02-28T12:38:49;5.90;99.90
58309;DHT22;44117;57.142;24.826;2023-02-28T12:41:17;5.90;99.90
58309;DHT22;44117;57.142;24.826;2023-02-28T12:43:51;5.70;99.90
58309;DHT22;44117;57.142;24.826;2023-02-28T12:46:21;5.50;99.90
58309;DHT22;44117;57.142;24.826;2023-02-28T12:49:08;5.50;99.90
58309;DHT22;44117;57.142;24.826;2023-02-28T12:51:39;5.30;99.90
58309;DHT22;44117;57.142;24.826;2023-02-28T13:02:12;5.50;99.90
58309;DHT22;44117;57.142;24.826;2023-02-28T13:07:32;5.50;99.90
58309;DHT22;44117;57.142;24.826;2023-02-28T13:10:16;5.30;99.90
58309;DHT22;44117;57.142;24.826;2023-02-28T13:12:52;5.40;99.90
58309;DHT22;44117;57.142;24.826;2023-02-28T13:15:21;5.30;99.90
58309;DHT22;44117;57.142;24.826;2023-02-28T13:17:52;5.40;99.90
58309;DHT22;44117;57.142;24.826;2023-02-28T13:20:36;5.50;99.90
58309;DHT22;44117;57.142;24.826;2023-02-28T13:23:03;5.60;99.90
58309;DHT22;44117;57.142;24.826;2023-02-28T13:25:51;5.60;99.90
58309;DHT22;44117;57.142;24.826;2023-02-28T13:28:56;5.70;99.90
58309;DHT22;44117;57.142;24.826;2023-02-28T13:31:06;5.50;99.90
58309;DHT22;44117;57.142;24.826;2023-02-28T13:33:33;5.50;99.90
58309;DHT22;44117;57.142;24.826;2023-02-28T13:36:08;5.40;99.90
58309;DHT22;44117;57.142;24.826;2023-02-28T13:38:40;5.30;99.90
58309;DHT22;44117;57.142;24.826;2023-02-28T13:46:36;4.90;99.90
58309;DHT22;44117;57.142;24.826;2023-02-28T13:54:48;4.80;99.90
58309;DHT22;44117;57.142;24.826;2023-02-28T13:59:54;4.60;99.90
58309;DHT22;44117;57.142;24.826;2023-02-28T14:04:59;4.60;99.90
58309;DHT22;44117;57.142;24.826;2023-02-28T14:12:58;4.50;99.90
58309;DHT22;44117;57.142;24.826;2023-02-28T14:15:40;4.50;99.90
58309;DHT22;44117;57.142;24.826;2023-02-28T14:18:17;4.40;99.90
58309;DHT22;44117;57.142;24.826;2023-02-28T14:20:54;4.30;99.90
58309;DHT22;44117;57.142;24.826;2023-02-28T14:26:43;4.20;99.90
58309;DHT22;44117;57.142;24.826;2023-02-28T14:37:00;4.20;99.90
58309;DHT22;44117;57.142;24.826;2023-02-28T14:39:29;4.10;99.90
58309;DHT22;44117;57.142;24.826;2023-02-28T14:42:01;4.10;99.90
58309;DHT22;44117;57.142;24.826;2023-02-28T14:44:32;4.20;99.90
58309;DHT22;44117;57.142;24.826;2023-02-28T14:47:03;4.20;99.90
58309;DHT22;44117;57.142;24.826;2023-02-28T14:49:36;4.10;99.90
58309;DHT22;44117;57.142;24.826;2023-02-28T14:52:19;4.10;99.90
58309;DHT22;44117;57.142;24.826;2023-02-28T14:54:57;4.10;99.90
58309;DHT22;44117;57.142;24.826;2023-02-28T15:02:25;4.00;99.90
58309;DHT22;44117;57.142;24.826;2023-02-28T15:05:16;4.00;99.90
58309;DHT22;44117;57.142;24.826;2023-02-28T15:07:44;4.00;99.90
58309;DHT22;44117;57.142;24.826;2023-02-28T15:10:24;3.90;99.90
58309;DHT22;44117;57.142;24.826;2023-02-28T15:12:53;3.90;99.90
58309;DHT22;44117;57.142;24.826;2023-02-28T15:15:24;3.90;99.90
58309;DHT22;44117;57.142;24.826;2023-02-28T15:18:06;3.80;99.90
58309;DHT22;44117;57.142;24.826;2023-02-28T15:20:34;3.80;99.90
58309;DHT22;44117;57.142;24.826;2023-02-28T15:23:02;3.70;99.90
58309;DHT22;44117;57.142;24.826;2023-02-28T15:25:34;3.70;99.90
58309;DHT22;44117;57.142;24.826;2023-02-28T15:28:01;3.70;99.90
58309;DHT22;44117;57.142;24.826;2023-02-28T15:30:29;3.70;99.90
58309;DHT22;44117;57.142;24.826;2023-02-28T15:35:31;3.50;99.90
58309;DHT22;44117;57.142;24.826;2023-02-28T15:38:03;3.40;99.90
58309;DHT22;44117;57.142;24.826;2023-02-28T15:40:36;3.40;99.90
58309;DHT22;44117;57.142;24.826;2023-02-28T15:43:12;3.40;99.90
58309;DHT22;44117;57.142;24.826;2023-02-28T15:45:41;3.30;99.90
58309;DHT22;44117;57.142;24.826;2023-02-28T15:48:13;3.30;99.90
58309;DHT22;44117;57.142;24.826;2023-02-28T15:50:41;3.20;99.90
58309;DHT22;44117;57.142;24.826;2023-02-28T15:53:12;3.10;99.90
58309;DHT22;44117;57.142;24.826;2023-02-28T15:55:39;3.00;99.90
58309;DHT22;44117;57.142;24.826;2023-02-28T15:58:08;3.00;99.90
58309;DHT22;44117;57.142;24.826;2023-02-28T16:00:38;2.90;99.90
58309;DHT22;44117;57.142;24.826;2023-02-28T16:03:25;2.90;99.90
58309;DHT22;44117;57.142;24.826;2023-02-28T16:08:38;2.90;99.90
58309;DHT22;44117;57.142;24.826;2023-02-28T16:11:08;2.90;99.90
58309;DHT22;44117;57.142;24.826;2023-02-28T16:13:35;2.90;99.90
58309;DHT22;44117;57.142;24.826;2023-02-28T16:16:03;2.90;99.90
58309;DHT22;44117;57.142;24.826;2023-02-28T16:18:30;2.80;99.90
58309;DHT22;44117;57.142;24.826;2023-02-28T16:20:57;2.90;99.90
58309;DHT22;44117;57.142;24.826;2023-02-28T16:23:24;2.80;99.90
58309;DHT22;44117;57.142;24.826;2023-02-28T16:25:51;2.80;99.90
58309;DHT22;44117;57.142;24.826;2023-02-28T16:28:28;2.80;99.90
58309;DHT22;44117;57.142;24.826;2023-02-28T16:30:59;2.70;99.90
58309;DHT22;44117;57.142;24.826;2023-02-28T16:33:26;2.60;99.90
58309;DHT22;44117;57.142;24.826;2023-02-28T16:35:54;2.60;99.90
58309;DHT22;44117;57.142;24.826;2023-02-28T16:38:21;2.50;99.90
58309;DHT22;44117;57.142;24.826;2023-02-28T16:40:50;2.40;99.90
58309;DHT22;44117;57.142;24.826;2023-02-28T16:43:18;2.40;99.90
58309;DHT22;44117;57.142;24.826;2023-02-28T16:45:47;2.30;99.90
58309;DHT22;44117;57.142;24.826;2023-02-28T16:48:15;2.30;99.90
58309;DHT22;44117;57.142;24.826;2023-02-28T16:50:42;2.30;99.90
58309;DHT22;44117;57.142;24.826;2023-02-28T16:53:12;2.30;99.90
58309;DHT22;44117;57.142;24.826;2023-02-28T16:55:40;2.20;99.90
58309;DHT22;44117;57.142;24.826;2023-02-28T16:58:10;2.20;99.90
58309;DHT22;44117;57.142;24.826;2023-02-28T17:00:38;2.20;99.90
58309;DHT22;44117;57.142;24.826;2023-02-28T17:03:09;2.20;99.90
58309;DHT22;44117;57.142;24.826;2023-02-28T17:05:49;2.10;99.90
58309;DHT22;44117;57.142;24.826;2023-02-28T17:08:17;2.10;99.90
58309;DHT22;44117;57.142;24.826;2023-02-28T17:10:44;2.00;99.90
58309;DHT22;44117;57.142;24.826;2023-02-28T17:13:11;2.00;99.90
58309;DHT22;44117;57.142;24.826;2023-02-28T17:15:41;2.00;99.90
58309;DHT22;44117;57.142;24.826;2023-02-28T17:18:09;2.00;99.90
58309;DHT22;44117;57.142;24.826;2023-02-28T17:20:37;2.10;99.90
58309;DHT22;44117;57.142;24.826;2023-02-28T17:23:04;2.00;99.90
58309;DHT22;44117;57.142;24.826;2023-02-28T17:25:31;1.90;99.90
58309;DHT22;44117;57.142;24.826;2023-02-28T17:27:58;1.90;99.90
58309;DHT22;44117;57.142;24.826;2023-02-28T17:30:26;1.90;99.90
58309;DHT22;44117;57.142;24.826;2023-02-28T17:32:54;1.80;99.90
58309;DHT22;44117;57.142;24.826;2023-02-28T17:35:21;1.80;99.90
58309;DHT22;44117;57.142;24.826;2023-02-28T17:37:49;1.80;99.90
58309;DHT22;44117;57.142;24.826;2023-02-28T17:40:17;1.80;99.90
58309;DHT22;44117;57.142;24.826;2023-02-28T17:42:44;1.80;99.90
58309;DHT22;44117;57.142;24.826;2023-02-28T17:45:12;1.80;99.90
58309;DHT22;44117;57.142;24.826;2023-02-28T17:47:39;1.70;99.90
58309;DHT22;44117;57.142;24.826;2023-02-28T17:50:11;1.80;99.90
58309;DHT22;44117;57.142;24.826;2023-02-28T17:52:40;1.80;99.90
58309;DHT22;44117;57.142;24.826;2023-02-28T17:55:08;1.80;99.90
58309;DHT22;44117;57.142;24.826;2023-02-28T17:57:35;1.80;99.90